Latest Weather Observations for Degrussa Aerodrome

IDW60801

Issued at 5:13 am WST Tuesday 6 December 2022 (issued every 10 minutes, with the page automatically refreshed every 10 minutes)

About weather observations | Map of weather stations | Latest weather observations for WA | Other Formats
Station Details ID: 507500 Name: DEGRUSSA AERODROME Lat: -25.56 Lon: 119.29 Height: 550.91 m
Data from the previous 72 hours. | See also: Recent months for locations in Western Australia
Date/Time
WST
Temp
°C
App
Temp
°C
Dew
Point
°C
Rel
Hum
%
Delta-T
°C
Wind Press
QNH
hPa
Press
MSL
hPa
Rain since
9am
mm
Dir  Spd
km/h
Gust
km/h
Spd
kts
Gust
kts
06/05:00am 26.4 23.7 3.6 23 11.6 WSW 7 11 4 6 1009.2 1004.8 0.0
06/04:30am 27.0 23.9 3.5 22 12.0 WSW 9 11 5 6 1008.9 1004.5 0.0
06/04:00am 27.5 24.3 3.2 21 12.4 WSW 9 15 5 8 1008.7 1004.3 0.0
06/03:30am 28.0 24.0 3.0 20 12.7 WSW 13 15 7 8 1008.4 1004.0 0.0
06/03:00am 28.2 24.1 2.4 19 13.1 WSW 13 17 7 9 1008.5 1004.1 0.0
06/02:30am 28.0 25.0 2.2 19 13.0 WSW 7 11 4 6 1008.7 1004.3 0.0
06/02:00am 28.5 25.8 2.7 19 13.2 SW 6 7 3 4 1008.7 1004.3 0.0
06/01:30am 29.2 26.5 2.5 18 13.6 SSW 6 7 3 4 1008.8 1004.4 0.0
06/01:00am 30.1 26.8 2.4 17 14.2 SSW 9 13 5 7 1009.0 1004.6 0.0
06/12:30am 30.8 27.1 2.1 16 14.7 SSW 11 17 6 9 1009.0 1004.6 0.0
06/12:00am 31.3 27.1 1.6 15 15.1 SW 13 19 7 10 1009.1 1004.7 0.0
 
Date/Time
WST
Temp
°C
App
Temp
°C
Dew
Point
°C
Rel
Hum
%
Delta-T
°C
Wind Press
QNH
hPa
Press
MSL
hPa
Rain since
9am
mm
Dir  Spd
km/h
Gust
km/h
Spd
kts
Gust
kts
05/11:30pm 31.9 27.0 2.1 15 15.3 SW 17 20 9 11 1009.3 1005.0 0.0
05/11:00pm 32.5 27.5 1.6 14 15.8 SW 17 22 9 12 1009.5 1005.1 0.0
05/10:30pm 32.9 28.4 1.9 14 16.0 SW 15 19 8 10 1009.5 1005.1 0.0
05/10:00pm 33.7 28.3 1.5 13 16.6 SW 19 26 10 14 1009.6 1005.2 0.0
05/09:30pm 34.2 29.1 0.8 12 17.0 SW 17 26 9 14 1009.5 1005.1 0.0
05/09:00pm 35.1 29.0 0.2 11 17.8 SW 22 28 12 15 1009.2 1004.8 0.0
05/08:30pm 35.7 29.6 0.7 11 18.0 SW 22 30 12 16 1009.0 1004.6 0.0
05/08:00pm 36.2 30.4 2.3 12 18.0 WSW 22 30 12 16 1008.7 1004.3 0.0
05/07:30pm 36.7 31.3 2.7 12 18.1 SW 20 26 11 14 1008.4 1004.0 0.0
05/07:00pm 37.4 30.6 3.2 12 18.5 SW 28 32 15 17 1007.9 1003.5 0.0
05/06:30pm 38.1 31.4 3.8 12 18.7 WSW 28 37 15 20 1007.5 1003.0 0.0
05/06:00pm 38.9 33.5 4.4 12 19.1 W 22 33 12 18 1007.1 1002.7 0.0
05/05:30pm 39.3 33.6 4.7 12 19.3 W 24 35 13 19 1006.9 1002.5 0.0
05/05:00pm 39.8 34.5 5.1 12 19.5 SW 22 30 12 16 1006.7 1002.3 0.0
05/04:30pm 40.2 34.7 4.1 11 20.0 W 22 32 12 17 1006.8 1002.4 0.0
05/04:00pm 40.3 35.8 4.2 11 20.1 WSW 17 41 9 22 1007.0 1002.6 0.0
05/03:30pm 40.6 35.4 5.7 12 19.8 WSW 22 35 12 19 1007.1 1002.7 0.0
05/03:00pm 40.5 37.0 5.6 12 19.9 WNW 13 30 7 16 1007.5 1003.0 0.0
05/02:30pm 40.2 35.9 5.4 12 19.7 NW 17 32 9 17 1007.8 1003.4 0.0
05/02:00pm 40.3 35.2 4.2 11 20.1 W 20 35 11 19 1008.2 1003.8 0.0
05/01:30pm 40.7 35.9 4.5 11 20.2 NW 19 32 10 17 1008.4 1004.0 0.0
05/01:00pm 39.6 35.2 4.9 12 19.5 W 17 30 9 16 1008.9 1004.5 0.0
05/12:30pm 38.8 35.3 5.4 13 18.8 WSW 13 30 7 16 1009.3 1005.0 0.0
05/12:00pm 38.9 36.6 5.5 13 18.8 SSW 7 19 4 10 1009.8 1005.4 0.0
05/11:30am 39.6 36.0 4.9 12 19.4 S 13 28 7 15 1010.1 1005.7 0.0
05/11:00am 38.2 34.8 6.0 14 18.2 WSW 13 26 7 14 1010.5 1006.1 0.0
05/10:30am 38.1 34.7 6.0 14 18.1 SW 13 24 7 13 1010.8 1006.4 0.0
05/10:00am 37.1 33.4 6.2 15 17.4 SSW 15 26 8 14 1011.0 1006.7 0.0
05/09:30am 37.0 32.9 6.1 15 17.4 SW 17 30 9 16 1011.2 1006.9 0.0
05/09:00am 36.4 32.2 5.6 15 17.2 SSW 17 24 9 13 1011.5 1007.1 1.4
05/08:30am 35.8 32.3 7.0 17 16.3 S 15 24 8 13 1011.6 1007.2 1.4
05/08:00am 34.3 30.3 6.6 18 15.5 S 17 24 9 13 1011.4 1007.0 1.4
05/07:30am 33.2 29.2 6.5 19 14.8 S 17 24 9 13 1011.0 1006.7 1.4
05/07:00am 31.3 27.0 7.1 22 13.5 SSW 19 26 10 14 1010.8 1006.4 1.4
05/06:30am 30.2 26.2 6.8 23 12.9 SSW 17 22 9 12 1010.6 1006.2 1.4
05/06:00am 28.7 25.5 6.7 25 12.0 SSW 13 17 7 9 1010.5 1006.1 1.4
05/05:30am 27.9 25.0 6.6 26 11.5 SSW 11 15 6 8 1010.2 1005.8 1.4
05/05:00am 27.6 24.7 6.4 26 11.4 SW 11 15 6 8 1009.8 1005.4 1.4
05/04:30am 28.3 25.8 6.4 25 11.9 SSW 9 15 5 8 1009.8 1005.4 1.4
05/04:00am 28.7 24.6 6.1 24 12.2 SW 17 20 9 11 1009.6 1005.2 1.4
05/03:30am 29.2 25.1 6.0 23 12.5 SSW 17 20 9 11 1009.5 1005.1 1.4
05/03:00am 29.1 25.8 6.5 24 12.3 SW 13 17 7 9 1009.6 1005.2 1.4
05/02:30am 29.9 27.4 6.5 23 12.8 SSW 9 11 5 6 1009.6 1005.2 1.4
05/02:00am 30.9 27.5 6.0 21 13.6 SSW 13 17 7 9 1009.5 1005.1 1.4
05/01:30am 31.6 27.4 5.9 20 14.0 SSW 17 22 9 12 1009.5 1005.1 1.4
05/01:00am 32.1 28.0 6.3 20 14.2 SSW 17 26 9 14 1009.5 1005.1 1.4
05/12:30am 32.6 28.2 6.7 20 14.4 SSW 19 26 10 14 1009.6 1005.2 1.4
05/12:00am 32.9 28.4 7.0 20 14.5 S 20 24 11 13 1009.7 1005.3 1.4
 
Date/Time
WST
Temp
°C
App
Temp
°C
Dew
Point
°C
Rel
Hum
%
Delta-T
°C
Wind Press
QNH
hPa
Press
MSL
hPa
Rain since
9am
mm
Dir  Spd
km/h
Gust
km/h
Spd
kts
Gust
kts
04/11:30pm 33.2 28.8 7.2 20 14.6 SSW 20 28 11 15 1009.5 1005.1 1.4
04/11:00pm 33.6 29.8 7.6 20 14.8 SSW 17 20 9 11 1009.6 1005.2 1.4
04/10:30pm 34.2 30.3 7.3 19 15.2 SSW 17 22 9 12 1009.8 1005.4 1.4
04/10:00pm 34.8 30.9 7.0 18 15.7 SW 17 24 9 13 1009.9 1005.5 1.4
04/09:30pm 35.3 30.9 6.6 17 16.1 SW 19 22 10 12 1009.7 1005.3 1.4
04/09:00pm 35.8 31.3 6.1 16 16.6 SW 19 24 10 13 1009.6 1005.2 1.4
04/08:30pm 36.3 32.3 6.5 16 16.8 SW 17 20 9 11 1009.3 1005.0 1.4
04/08:00pm 37.0 32.3 6.1 15 17.4 SW 20 32 11 17 1009.1 1004.7 1.4
04/07:30pm 37.6 33.0 5.6 14 17.9 SW 19 24 10 13 1008.7 1004.3 1.4
04/07:00pm 38.3 33.6 5.0 13 18.6 SW 19 24 10 13 1008.3 1003.9 1.4
04/06:30pm 39.0 33.8 5.6 13 18.8 SW 22 32 12 17 1008.0 1003.6 1.4
04/06:00pm 39.6 34.7 4.9 12 19.5 SW 20 26 11 14 1007.7 1003.3 1.4
04/05:30pm 40.4 36.2 5.5 12 19.8 SW 17 24 9 13 1007.5 1003.0 1.4
04/05:00pm 40.6 35.6 4.4 11 20.3 SW 20 30 11 16 1007.3 1002.9 1.4
04/04:30pm 40.2 35.4 5.4 12 19.7 SW 20 32 11 17 1007.3 1002.9 1.4
04/04:00pm 40.8 35.4 4.6 11 20.3 SW 22 32 12 17 1007.3 1002.9 1.4
04/03:30pm 40.4 35.8 5.5 12 19.8 SSW 19 30 10 16 1007.5 1003.0 1.4
04/03:00pm 41.1 37.1 4.8 11 20.5 WSW 15 32 8 17 1007.7 1003.3 1.4
04/02:30pm 40.2 35.9 5.4 12 19.7 W 17 33 9 18 1007.8 1003.4 1.4
04/02:00pm 40.2 35.9 5.4 12 19.7 SW 17 35 9 19 1008.3 1003.9 1.4
04/01:30pm 40.8 37.4 5.8 12 20.0 SW 13 28 7 15 1008.7 1004.3 1.4
04/01:00pm 40.4 36.2 5.5 12 19.8 WSW 17 28 9 15 1008.9 1004.5 1.4
04/12:30pm 39.8 36.8 6.2 13 19.2 S 11 26 6 14 1009.2 1004.8 1.4
04/12:00pm 39.5 36.5 6.0 13 19.1 S 11 26 6 14 1009.7 1005.3 1.4
04/11:30am 38.6 34.3 5.3 13 18.7 SW 17 26 9 14 1010.0 1005.6 1.4
04/11:00am 38.9 34.3 5.5 13 18.8 SSW 19 30 10 16 1010.2 1005.8 1.4
04/10:30am 38.1 34.3 6.0 14 18.1 S 15 26 8 14 1010.4 1006.0 1.4
04/10:07am 37.4 32.8 5.4 14 17.9 SSW 19 28 10 15 1010.6 1006.2 1.4
04/10:00am 37.0 32.3 5.1 14 17.7 SSW 19 30 10 16 1010.6 1006.2 1.4
04/09:49am 37.3 33.4 5.3 14 17.8 S 15 28 8 15 1010.7 1006.3 1.4
04/09:30am 36.0 32.1 5.3 15 17.0 SSW 15 26 8 14 1010.8 1006.4 0.0
04/09:00am 35.2 31.7 5.6 16 16.4 SSW 13 22 7 12 1010.9 1006.5 0.0
04/08:30am 33.8 29.5 5.4 17 15.6 SSW 17 28 9 15 1010.9 1006.5 0.0
04/08:00am 32.6 27.7 5.2 18 14.9 SSW 20 26 11 14 1010.6 1006.2 0.0
04/07:30am 31.7 26.8 5.3 19 14.3 S 20 26 11 14 1010.5 1006.1 0.0
04/07:00am 30.5 25.3 5.7 21 13.4 SSW 22 30 12 16 1010.2 1005.8 0.0
04/06:30am 29.4 24.9 6.1 23 12.6 SSW 19 24 10 13 1010.0 1005.6 0.0
04/06:00am 28.3 24.6 6.4 25 11.9 SSW 15 20 8 11 1009.7 1005.3 0.0
04/05:30am 27.8 24.2 6.6 26 11.5 SSW 15 19 8 10 1009.2 1004.8 0.0
04/05:00am 28.2 24.3 6.9 26 11.6 SSW 17 19 9 10 1008.8 1004.4 0.0
04/04:30am 28.5 24.0 7.1 26 11.7 SSW 20 26 11 14 1008.7 1004.3 0.0
04/04:00am 29.3 24.6 7.8 26 12.0 SW 22 28 12 15 1008.5 1004.1 0.0
04/03:30am 29.8 26.4 9.3 28 11.7 WSW 17 22 9 12 1008.4 1004.0 0.0
04/03:00am 29.7 29.5 13.0 35 10.1 WSW 6 9 3 5 1008.4 1004.0 0.0
04/02:30am 30.6 29.6 11.1 30 11.5 SW 7 11 4 6 1008.3 1003.9 0.0
04/02:00am 31.5 31.4 10.8 28 12.2 N 2 4 1 2 1008.3 1003.9 0.0
04/01:30am 32.2 31.1 10.8 27 12.7 ESE 7 9 4 5 1008.5 1004.1 0.0
04/01:00am 32.1 31.6 10.8 27 12.6 N 4 6 2 3 1008.8 1004.4 0.0
04/12:30am 32.1 32.4 10.8 27 12.6 CALM 0 4 0 2 1009.0 1004.6 0.0
04/12:00am 32.6 31.9 10.0 25 13.3 SE 4 4 2 2 1009.3 1005.0 0.0
 
Date/Time
WST
Temp
°C
App
Temp
°C
Dew
Point
°C
Rel
Hum
%
Delta-T
°C
Wind Press
QNH
hPa
Press
MSL
hPa
Rain since
9am
mm
Dir  Spd
km/h
Gust
km/h
Spd
kts
Gust
kts
03/11:30pm 33.1 31.8 9.2 23 13.9 E 6 7 3 4 1009.8 1005.4 0.0
03/11:00pm 33.3 31.9 9.4 23 13.9 SW 7 11 4 6 1010.1 1005.7 0.0
03/10:30pm 33.3 32.1 9.4 23 13.9 SW 6 7 3 4 1010.6 1006.2 0.0
03/10:00pm 33.3 30.1 10.0 24 13.7 SE 17 22 9 12 1011.1 1006.8 0.0
03/09:30pm 33.7 31.5 10.9 25 13.6 E 13 24 7 13 1011.0 1006.7 0.0
03/09:00pm 34.1 28.6 10.7 24 14.0 NNE 30 43 16 23 1010.3 1005.9 0.0
03/08:30pm 35.8 30.2 8.6 19 15.8 SE 28 44 15 24 1008.8 1004.4 0.0
03/08:25pm 35.0 29.6 9.4 21 15.0 E 28 44 15 24 1008.8 1004.4 0.0
03/08:00pm 37.2 33.9 6.3 15 17.5 SSE 13 24 7 13 1008.1 1003.7 0.0
03/07:30pm 37.8 32.3 5.7 14 18.0 SW 24 35 13 19 1007.3 1002.9 0.0
03/07:20pm 38.5 32.5 5.2 13 18.6 SW 26 37 14 20 1007.3 1002.9 0.0
03/07:06pm 37.5 30.8 5.5 14 17.9 SW 30 56 16 30 1006.9 1002.5 0.0
03/07:00pm 36.9 30.7 7.8 17 16.8 SSW 30 44 16 24 1007.2 1002.8 0.0
03/06:59pm 37.2 30.9 7.2 16 17.2 SSW 30 44 16 24 1007.2 1002.8 0.0
03/06:46pm 36.4 29.0 8.3 18 16.3 WSW 37 59 20 32 1006.7 1002.3 0.0
03/06:41pm 37.1 30.4 8.0 17 16.9 WSW 33 46 18 25 1006.7 1002.3 0.0
03/06:30pm 36.7 31.2 9.3 19 16.2 W 28 46 15 25 1006.5 1002.1 0.0
03/06:23pm 37.7 32.0 8.5 17 17.1 WNW 28 46 15 25 1006.4 1002.0 0.0
03/06:11pm 39.1 35.7 7.7 15 18.3 NNW 15 24 8 13 1006.3 1001.9 0.0
03/06:00pm 39.7 38.3 7.2 14 18.9 NNW 4 17 2 9 1006.2 1001.8 0.0
03/05:30pm 40.3 38.4 6.6 13 19.4 ESE 6 17 3 9 1005.9 1001.4 0.0
03/05:00pm 40.1 37.2 6.4 13 19.4 NE 11 20 6 11 1005.7 1001.2 0.0
03/04:30pm 41.0 38.8 6.0 12 20.0 NNE 7 17 4 9 1005.9 1001.4 0.0
03/04:00pm 40.2 38.1 6.5 13 19.4 NE 7 15 4 8 1005.9 1001.4 0.0
03/03:30pm 41.4 38.1 6.3 12 20.2 NNW 13 22 7 12 1006.3 1001.9 0.0
03/03:00pm 40.7 38.3 6.9 13 19.6 NW 9 30 5 16 1006.5 1002.1 0.0
03/02:30pm 41.0 38.2 7.1 13 19.7 NNW 11 20 6 11 1006.8 1002.4 0.0
03/02:00pm 41.2 39.2 6.1 12 20.2 NW 6 15 3 8 1007.1 1002.7 0.0
03/01:30pm 41.2 36.5 6.1 12 20.1 NNW 20 32 11 17 1007.6 1003.1 0.0
03/01:18pm 41.3 37.2 6.2 12 20.2 N 17 37 9 20 1007.7 1003.3 0.0
03/01:00pm 40.2 37.1 5.4 12 19.7 N 11 35 6 19 1008.0 1003.6 0.0
03/12:30pm 40.9 37.5 5.9 12 20.0 ENE 13 28 7 15 1008.2 1003.8 0.0
03/12:00pm 38.9 36.6 5.5 13 18.8 NW 7 17 4 9 1008.4 1004.0 0.0
03/11:30am 39.2 35.0 5.7 13 18.9 NE 17 37 9 20 1008.8 1004.4 0.0
03/11:00am 38.5 35.3 5.2 13 18.7 E 11 24 6 13 1009.2 1004.8 0.0
03/10:30am 37.7 33.9 5.6 14 18.0 E 15 26 8 14 1009.6 1005.2 0.0
03/10:00am 37.6 34.1 5.6 14 18.0 SE 13 26 7 14 1009.8 1005.4 0.0
03/09:30am 37.2 32.7 6.3 15 17.5 E 19 32 10 17 1010.0 1005.6 0.0
03/09:00am 36.6 31.6 3.7 13 17.8 E 19 30 10 16 1010.2 1005.8 0.0
03/08:30am 35.8 30.1 3.1 13 17.5 ESE 22 28 12 15 1010.3 1005.9 0.0
03/08:00am 35.0 29.0 3.5 14 16.9 ESE 24 33 13 18 1010.2 1005.8 0.0
03/07:30am 34.4 28.9 4.0 15 16.3 ESE 22 30 12 16 1010.1 1005.7 0.0
03/07:00am 32.4 28.4 6.6 20 14.3 SE 17 24 9 13 1009.8 1005.4 0.0
03/06:30am 31.0 27.7 8.1 24 12.9 SE 15 19 8 10 1009.6 1005.2 0.0
03/06:00am 28.7 27.7 8.9 29 11.2 SE 4 6 2 3 1009.2 1004.8 0.0
03/05:30am 27.1 25.1 8.5 31 10.4 SSE 9 11 5 6 1008.8 1004.4 0.0

Other formats

Comma delimited format used in spreadsheet applications
http://www.bom.gov.au/fwo/IDW60801/IDW60801.99400.axf

JavaScript Object Notation format (JSON) in row-major order
http://www.bom.gov.au/fwo/IDW60801/IDW60801.99400.json

Data quality

Most of these data are generated automatically and are frequently updated. Quality checks on data are not normally performed. It is possible for incorrect values to appear. Refer to information at About Latest Weather Observations and please check the disclaimer before using these data.